Latest Weather Observations for Canberra

IDN60901

Issued at 2:51 pm EDT Saturday 25 March 2017 (issued every 10 minutes, with the page automatically refreshed every 10 minutes)

About weather observations | Map of Canberra area stations | Latest observations for Canberra area | Other Formats
Station Details ID: 070351 Name: CANBERRA AIRPORT Lat: -35.31 Lon: 149.20 Height: 577.05 m
Data from the previous 72 hours. | See also: Recent months at Canberra
Date/Time
EDT
Temp
°C
App
Temp
°C
Dew
Point
°C
Rel
Hum
%
Delta-T
°C
Wind Press
QNH
hPa
Press
MSL
hPa
Rain since
9am
mm
Dir  Spd
km/h
Gust
km/h
Spd
kts
Gust
kts
25/02:30pm 17.4 17.1 14.5 83 1.7 N 9 11 5 6 1015.7 1013.8 0.2
25/02:00pm 16.8 17.3 13.9 83 1.7 SSE 4 7 2 4 1016.0 1014.2 0.0
25/01:38pm 17.0 16.5 13.9 82 1.8 W 9 11 5 6 1016.7 1014.8 0.0
25/01:30pm 17.2 17.1 13.9 81 1.9 WNW 7 11 4 6 1016.8 1014.9 0.0
25/01:20pm 17.7 16.6 13.0 74 2.7 W 11 13 6 7 1017.0 1015.1 0.0
25/01:00pm 17.9 17.4 12.8 72 2.9 WNW 7 13 4 7 1017.2 1015.3 0.0
25/12:30pm 18.0 19.0 13.1 73 2.8 CALM 0 7 0 4 1017.5 1015.7 0.0
25/12:00pm 17.7 16.9 13.0 74 2.7 NW 9 13 5 7 1018.3 1016.4 0.0
25/11:30am 17.7 17.2 12.6 72 2.9 SW 7 9 4 5 1018.4 1016.5 0.0
25/11:00am 17.4 17.1 12.7 74 2.7 W 6 7 3 4 1018.4 1016.5 0.0
25/10:30am 16.6 16.1 12.6 77 2.3 SW 7 9 4 5 1018.8 1016.9 0.0
25/10:00am 16.4 16.1 12.6 78 2.2 SE 6 11 3 6 1018.6 1016.7 0.0
25/09:30am 15.7 14.7 12.3 80 1.9 ESE 9 11 5 6 1018.6 1016.7 0.0
25/09:00am 15.1 14.4 13.1 88 1.1 SE 9 11 5 6 1018.7 1016.8 0.0
25/08:30am 14.6 14.7 14.0 96 0.3 ESE 6 9 3 5 1018.5 1016.6 0.0
25/08:00am 13.1 13.9 12.6 97 0.3 CALM 0 9 0 5 1018.6 1016.7 0.0
25/07:30am 12.5 13.1 12.0 97 0.3 CALM 0 0 0 0 1018.5 1016.6 0.0
25/07:00am 12.4 13.1 12.1 98 0.2 CALM 0 0 0 0 1018.4 1016.5 0.0
25/06:30am 12.5 12.0 12.0 97 0.3 S 6 7 3 4 1018.4 1016.5 0.0
25/06:24am 12.6 12.1 12.1 97 0.3 SW 6 7 3 4 1018.4 1016.5 0.0
25/06:00am 12.6 13.3 12.1 97 0.3 CALM 0 0 0 0 1018.1 1016.2 0.0
25/05:30am 12.6 13.3 12.1 97 0.3 CALM 0 0 0 0 1018.3 1016.4 0.0
25/05:00am 12.3 11.4 11.5 95 0.4 ESE 7 9 4 5 1018.2 1016.3 0.0
25/04:35am 13.1 12.5 12.3 95 0.4 SE 7 7 4 4 1018.5 1016.6 0.0
25/04:30am 13.3 12.8 12.5 95 0.4 SSE 7 9 4 5 1018.5 1016.6 0.0
25/04:00am 13.7 13.4 12.6 93 0.6 ESE 6 9 3 5 1018.5 1016.6 0.0
25/03:30am 14.1 14.7 13.1 94 0.6 S 2 7 1 4 1018.9 1017.1 0.0
25/03:19am 13.7 13.2 12.6 93 0.6 SSE 7 7 4 4 1019.0 1017.2 0.0
25/03:00am 13.7 12.7 12.4 92 0.7 SSE 9 9 5 5 1019.0 1017.2 0.0
25/02:56am 13.7 12.7 12.3 91 0.8 SSE 9 9 5 5 1019.1 1017.3 0.0
25/02:30am 14.4 15.3 12.8 90 0.9 CALM 0 0 0 0 1019.3 1017.5 0.0
25/02:17am 14.6 14.7 12.8 89 1.0 ESE 4 6 2 3 1019.5 1017.7 0.0
25/02:02am 14.5 13.9 12.4 87 1.2 ESE 7 9 4 5 1019.5 1017.7 0.0
25/02:00am 14.5 13.9 12.4 87 1.2 ESE 7 9 4 5 1019.6 1017.8 0.0
25/01:30am 15.4 16.2 12.7 84 1.5 CALM 0 0 0 0 1020.1 1018.2 0.0
25/01:00am 15.4 14.9 12.7 84 1.5 E 7 9 4 5 1020.0 1018.1 0.0
25/12:30am 15.5 15.1 13.0 85 1.4 ESE 7 9 4 5 1020.4 1018.6 0.0
25/12:00am 15.6 15.2 12.9 84 1.5 SSE 7 11 4 6 1020.6 1018.8 0.0
 
Date/Time
EDT
Temp
°C
App
Temp
°C
Dew
Point
°C
Rel
Hum
%
Delta-T
°C
Wind Press
QNH
hPa
Press
MSL
hPa
Rain since
9am
mm
Dir  Spd
km/h
Gust
km/h
Spd
kts
Gust
kts
24/11:30pm 15.5 15.9 12.6 83 1.6 N 2 7 1 4 1020.9 1019.1 0.0
24/11:22pm 15.4 14.9 12.7 84 1.5 NE 7 13 4 7 1020.9 1019.1 0.0
24/11:00pm 15.2 14.7 12.5 84 1.5 E 7 9 4 5 1021.8 1019.9 0.0
24/10:30pm 15.5 14.2 12.4 82 1.7 E 11 15 6 8 1021.5 1019.7 0.0
24/10:00pm 15.7 13.3 12.5 81 1.8 E 17 24 9 13 1021.1 1019.3 0.0
24/09:30pm 15.8 14.2 12.7 82 1.8 E 13 17 7 9 1021.2 1019.4 0.0
24/09:00pm 15.8 14.6 12.7 82 1.8 E 11 15 6 8 1020.9 1019.1 0.0
24/08:30pm 16.3 15.1 12.8 80 2.0 E 11 15 6 8 1020.6 1018.8 0.0
24/08:00pm 16.5 14.1 12.7 78 2.2 E 17 20 9 11 1020.2 1018.3 0.0
24/07:30pm 16.8 14.4 12.5 76 2.4 E 17 22 9 12 1020.0 1018.1 0.0
24/07:00pm 17.8 15.4 12.7 72 2.9 ENE 17 20 9 11 1019.7 1017.9 0.0
24/06:30pm 18.8 16.7 12.5 67 3.6 ESE 15 22 8 12 1020.0 1018.1 0.0
24/06:00pm 20.1 16.8 12.8 63 4.2 E 22 32 12 17 1019.6 1017.8 0.0
24/05:30pm 20.4 18.1 11.6 57 5.0 E 15 22 8 12 1019.4 1017.6 0.0
24/05:00pm 20.3 17.7 12.0 59 4.7 ESE 17 26 9 14 1019.4 1017.6 0.0
24/04:30pm 20.7 18.1 12.1 58 4.9 ESE 17 22 9 12 1019.5 1017.7 0.0
24/04:00pm 20.7 18.1 11.9 57 5.0 ESE 17 22 9 12 1019.7 1017.9 0.0
24/03:30pm 21.0 17.4 11.9 56 5.2 ESE 22 32 12 17 1020.0 1018.1 0.0
24/03:00pm 20.7 18.1 12.1 58 4.9 ESE 17 24 9 13 1020.3 1018.4 0.0
24/02:30pm 20.4 18.9 11.9 58 4.9 SE 11 17 6 9 1020.8 1019.0 0.0
24/02:00pm 20.1 17.8 11.8 59 4.7 ESE 15 24 8 13 1021.2 1019.4 0.0
24/01:30pm 19.9 17.6 11.9 60 4.6 ESE 15 22 8 12 1021.4 1019.6 0.0
24/01:00pm 19.2 17.2 11.5 61 4.3 ESE 13 20 7 11 1021.9 1020.0 0.0
24/12:30pm 19.0 17.6 12.3 65 3.8 SE 11 19 6 10 1022.2 1020.4 0.0
24/12:00pm 18.7 17.2 12.0 65 3.8 SSE 11 17 6 9 1022.5 1020.7 0.0
24/11:30am 17.8 15.9 11.8 68 3.4 SE 13 15 7 8 1022.8 1021.0 0.0
24/11:00am 18.1 16.5 11.4 65 3.7 SE 11 17 6 9 1022.9 1021.1 0.0
24/10:30am 17.7 15.6 11.3 66 3.6 SSE 13 15 7 8 1022.8 1021.0 0.0
24/10:00am 17.2 14.7 11.0 67 3.4 ESE 15 22 8 12 1022.7 1020.9 0.0
24/09:35am 16.8 15.3 11.9 73 2.8 SSE 11 15 6 8 1022.5 1020.7 0.0
24/09:30am 16.6 15.1 12.0 74 2.6 SSE 11 15 6 8 1022.5 1020.7 0.0
24/09:00am 16.1 14.7 12.1 77 2.2 SSE 11 15 6 8 1022.5 1020.7 9.0
24/08:30am 16.0 14.0 11.6 75 2.4 SSE 13 17 7 9 1021.9 1020.0 9.0
24/08:00am 15.2 13.6 11.6 79 2.0 SSE 11 15 6 8 1021.8 1019.9 9.0
24/07:30am 14.8 13.3 11.9 83 1.6 S 11 13 6 7 1021.5 1019.7 9.0
24/07:00am 14.7 13.3 12.2 85 1.4 SSE 11 15 6 8 1021.3 1019.5 9.0
24/06:30am 14.8 13.5 12.5 86 1.3 SSE 11 15 6 8 1021.1 1019.3 9.0
24/06:00am 15.1 13.8 12.6 85 1.4 SSE 11 15 6 8 1021.5 1019.7 9.0
24/05:30am 15.1 13.6 13.0 87 1.2 SSE 13 17 7 9 1021.3 1019.5 9.0
24/05:00am 15.1 14.0 13.1 88 1.1 SSE 11 15 6 8 1020.9 1019.1 9.0
24/04:30am 15.1 14.4 13.3 89 1.0 SSE 9 13 5 7 1020.8 1019.0 9.0
24/04:11am 15.1 14.4 13.3 89 1.0 SSE 9 13 5 7 1020.8 1019.0 9.0
24/04:00am 15.0 14.4 13.4 90 0.9 SSE 9 11 5 6 1020.9 1019.1 9.0
24/03:57am 15.0 14.4 13.5 91 0.9 SSE 9 11 5 6 1020.9 1019.1 9.0
24/03:30am 15.0 14.8 13.7 92 0.7 SSE 7 9 4 5 1021.0 1019.2 9.0
24/03:00am 14.9 14.8 13.9 94 0.6 SE 7 9 4 5 1021.0 1019.2 9.0
24/02:37am 14.9 14.8 13.9 94 0.6 SE 7 11 4 6 1021.1 1019.3 9.0
24/02:30am 15.0 14.6 14.0 94 0.6 SE 9 11 5 6 1021.1 1019.3 9.0
24/02:00am 14.7 14.3 14.1 96 0.3 SE 9 11 5 6 1021.3 1019.5 8.8
24/01:52am 14.7 14.7 14.1 96 0.3 SE 7 11 4 6 1021.2 1019.4 8.8
24/01:30am 14.9 14.9 14.3 96 0.3 ESE 7 7 4 4 1021.3 1019.5 8.8
24/01:00am 14.9 14.9 14.3 96 0.3 ESE 7 9 4 5 1021.4 1019.6 8.8
24/12:30am 14.5 14.6 14.0 97 0.3 SE 6 7 3 4 1021.5 1019.7 8.8
24/12:00am 14.5 14.6 13.9 96 0.3 SE 6 7 3 4 1021.5 1019.7 8.8
 
Date/Time
EDT
Temp
°C
App
Temp
°C
Dew
Point
°C
Rel
Hum
%
Delta-T
°C
Wind Press
QNH
hPa
Press
MSL
hPa
Rain since
9am
mm
Dir  Spd
km/h
Gust
km/h
Spd
kts
Gust
kts
23/11:30pm 15.1 15.4 14.5 96 0.4 SE 6 7 3 4 1021.5 1019.7 8.8
23/11:00pm 14.7 14.9 14.2 97 0.3 SE 6 7 3 4 1021.3 1019.5 8.8
23/10:30pm 14.6 13.7 13.6 94 0.6 SSE 11 17 6 9 1021.4 1019.6 8.8
23/10:08pm 15.2 14.5 14.2 94 0.6 SSE 11 15 6 8 1021.3 1019.5 8.8
23/10:00pm 15.2 14.6 14.7 97 0.3 SSE 11 15 6 8 1021.2 1019.4 8.8
23/09:55pm 15.0 14.8 14.7 98 0.2 S 9 13 5 7 1021.2 1019.4 8.8
23/09:30pm 15.2 16.7 14.7 97 0.3 CALM 0 7 0 4 1021.1 1019.3 8.8
23/09:00pm 15.4 15.7 14.6 95 0.5 WSW 6 7 3 4 1020.4 1018.6 8.6
23/08:30pm 15.7 16.9 14.9 95 0.5 WNW 2 6 1 3 1020.3 1018.4 8.2
23/08:00pm 15.7 17.0 15.2 97 0.3 SSE 2 6 1 3 1020.2 1018.3 8.0
23/07:30pm 15.6 15.2 15.1 97 0.3 SSE 11 15 6 8 1020.1 1018.2 7.8
23/07:00pm 15.7 15.4 15.4 98 0.2 SSE 11 15 6 8 1020.1 1018.2 7.4
23/06:30pm 16.0 16.1 15.5 97 0.3 SSW 9 13 5 7 1020.3 1018.4 7.2
23/06:11pm 16.0 16.1 15.4 96 0.4 SSE 9 17 5 9 1020.0 1018.1 7.0
23/06:00pm 16.2 15.6 15.6 96 0.4 S 13 19 7 10 1019.5 1017.7 5.2
23/05:55pm 16.2 15.5 15.4 95 0.5 SSW 13 15 7 8 1020.1 1018.2 5.0
23/05:44pm 16.4 16.2 15.8 96 0.4 S 11 15 6 8 1020.0 1018.1 4.8
23/05:30pm 16.4 16.3 15.9 97 0.3 S 11 15 6 8 1019.6 1017.8 4.6
23/05:16pm 16.4 15.5 15.9 97 0.3 S 15 17 8 9 1019.5 1017.7 4.4
23/05:00pm 16.4 15.1 15.8 96 0.4 S 17 20 9 11 1019.6 1017.8 4.0
23/04:47pm 16.7 16.1 15.6 93 0.7 SSW 13 17 7 9 1019.7 1017.9 3.6
23/04:30pm 17.2 17.3 15.5 90 1.0 SSE 9 11 5 6 1019.5 1017.7 3.0
23/04:14pm 17.6 18.2 15.4 87 1.3 ENE 6 7 3 4 1019.4 1017.6 2.2
23/04:00pm 17.6 17.7 15.4 87 1.3 E 9 13 5 7 1019.3 1017.5 2.0
23/03:30pm 17.9 17.1 15.2 84 1.6 E 13 15 7 8 1019.2 1017.4 2.0
23/03:00pm 18.1 16.7 14.6 80 2.1 ENE 15 19 8 10 1019.5 1017.7 2.0
23/02:30pm 17.8 17.8 15.2 85 1.6 ENE 9 13 5 7 1019.7 1017.9 2.0
23/02:00pm 17.7 17.7 15.3 86 1.4 ESE 9 13 5 7 1020.0 1018.1 2.0
23/01:30pm 17.4 16.4 14.7 84 1.6 SSE 13 20 7 11 1020.4 1018.6 1.0
23/01:00pm 19.6 17.6 12.8 65 3.9 SE 15 20 8 11 1020.7 1018.9 0.0
23/12:30pm 19.4 18.0 13.3 68 3.6 ESE 13 17 7 9 1021.0 1019.2 0.0
23/12:00pm 19.0 17.0 12.7 67 3.6 ESE 15 20 8 11 1021.2 1019.4 0.0
23/11:30am 19.4 16.5 12.9 66 3.8 ESE 20 28 11 15 1021.0 1019.2 0.0
23/11:00am 18.3 17.7 13.6 74 2.7 SE 9 13 5 7 1021.2 1019.4 0.0
23/10:30am 18.1 17.4 14.2 78 2.3 SE 11 15 6 8 1021.2 1019.4 0.0
23/10:00am 16.6 15.9 13.3 81 1.9 SSE 9 15 5 8 1021.4 1019.6 0.0
23/09:30am 16.1 16.0 13.8 86 1.3 SE 7 9 4 5 1021.2 1019.4 0.0
23/09:00am 15.7 15.1 13.5 87 1.3 SSE 9 11 5 6 1021.1 1019.3 8.2
23/08:30am 15.5 15.0 12.8 84 1.5 SSE 7 9 4 5 1021.0 1019.2 8.2
23/08:00am 14.9 14.3 13.4 91 0.9 ESE 9 11 5 6 1020.7 1018.9 8.2
23/07:30am 14.4 13.8 13.4 94 0.6 SE 9 9 5 5 1020.5 1018.7 8.2
23/07:00am 13.4 11.8 12.9 97 0.3 SE 13 15 7 8 1020.0 1018.1 8.2
23/06:30am 13.1 12.2 12.6 97 0.3 ESE 9 11 5 6 1020.1 1018.2 8.2
23/06:00am 13.2 12.0 12.7 97 0.3 ESE 11 13 6 7 1019.7 1017.9 8.2
23/05:30am 13.9 14.1 13.1 95 0.5 E 4 6 2 3 1019.6 1017.8 8.2
23/05:00am 14.5 14.2 13.2 92 0.7 SE 7 9 4 5 1019.3 1017.5 8.2
23/04:30am 15.4 14.8 13.6 89 1.0 SSE 9 11 5 6 1019.5 1017.7 8.2
23/04:00am 15.6 15.0 14.5 93 0.6 SSE 11 13 6 7 1019.3 1017.5 8.2
23/03:30am 16.2 16.5 14.9 92 0.8 SSE 7 11 4 6 1019.4 1017.6 8.2
23/03:00am 16.2 16.6 14.7 91 0.9 ESE 6 7 3 4 1019.3 1017.5 8.2
23/02:30am 16.2 16.0 14.6 90 0.9 SSE 9 13 5 7 1019.1 1017.3 8.2
23/02:00am 16.4 15.1 14.8 90 0.9 SE 15 24 8 13 1019.1 1017.3 8.2
23/01:55am 16.4 15.1 14.8 90 0.9 SE 15 24 8 13 1019.0 1017.2 8.2
23/01:30am 16.7 15.9 15.2 91 0.9 SE 13 17 7 9 1019.3 1017.5 8.2
23/01:05am 16.3 15.8 15.8 97 0.3 SSE 13 17 7 9 1019.3 1017.5 8.2
23/01:00am 16.2 15.6 15.7 97 0.3 SSE 13 19 7 10 1019.3 1017.5 8.0
23/12:30am 16.4 16.7 15.9 97 0.3 SE 9 15 5 8 1019.5 1017.7 7.0
23/12:08am 16.7 16.1 15.6 93 0.7 SE 13 19 7 10 1019.5 1017.7 5.8
23/12:00am 17.2 16.5 15.4 89 1.1 SE 13 19 7 10 1019.4 1017.6 5.6
 
Date/Time
EDT
Temp
°C
App
Temp
°C
Dew
Point
°C
Rel
Hum
%
Delta-T
°C
Wind Press
QNH
hPa
Press
MSL
hPa
Rain since
9am
mm
Dir  Spd
km/h
Gust
km/h
Spd
kts
Gust
kts
22/11:30pm 18.6 19.0 16.2 86 1.5 ENE 9 11 5 6 1019.2 1017.4 5.6
22/11:00pm 19.1 19.4 16.1 83 1.8 E 9 13 5 7 1019.2 1017.4 5.6
22/10:30pm 19.1 20.0 16.5 85 1.6 ESE 7 11 4 6 1018.8 1016.9 5.6
22/10:26pm 19.1 19.6 16.5 85 1.6 E 9 11 5 6 1018.8 1016.9 5.6
22/10:00pm 19.0 18.8 16.8 87 1.4 E 13 15 7 8 1018.2 1016.3 5.6
22/09:30pm 19.0 18.7 16.4 85 1.6 ESE 13 17 7 9 1017.5 1015.7 5.6
22/09:00pm 19.3 20.1 16.3 83 1.8 SE 7 11 4 6 1017.2 1015.3 5.6
22/08:30pm 20.2 19.8 16.2 78 2.5 ENE 13 20 7 11 1016.6 1014.7 5.6
22/08:00pm 20.9 20.7 16.7 77 2.6 E 13 17 7 9 1016.2 1014.3 5.6
22/07:30pm 20.5 21.4 17.5 83 1.9 E 9 11 5 6 1015.8 1014.0 5.6
22/07:00pm 21.5 22.6 17.1 76 2.8 ESE 7 13 4 7 1015.6 1013.7 5.6
22/06:30pm 22.7 24.6 15.8 65 4.3 CALM 0 0 0 0 1015.1 1013.2 5.6
22/06:00pm 23.5 24.6 17.0 67 4.1 SE 7 11 4 6 1014.5 1012.6 5.6
22/05:30pm 22.9 23.1 16.7 68 3.9 S 11 15 6 8 1014.0 1012.1 5.6
22/05:00pm 22.6 23.9 18.4 77 2.7 W 9 11 5 6 1013.5 1011.6 5.6
22/04:30pm 21.3 22.7 17.7 80 2.3 ESE 7 13 4 7 1013.2 1011.3 5.6
22/04:00pm 20.4 21.0 18.7 90 1.1 SE 13 24 7 13 1013.3 1011.4 5.6
22/03:30pm 19.7 20.8 18.0 90 1.1 SW 9 17 5 9 1014.6 1012.7 5.4
22/03:00pm 20.1 18.9 19.3 95 0.5 NW 24 33 13 18 1015.6 1013.7 3.8
22/02:59pm 20.0 18.8 19.2 95 0.5 NW 24 33 13 18 1015.6 1013.7 3.6

Latest Capital City Observations: Canberra | Sydney | Melbourne | Brisbane | Adelaide | Perth | Hobart | Darwin

Other Formats:

Comma delimited format used in spreadsheet applications
http://www.bom.gov.au/fwo/IDN60903/IDN60903.94926.axf

JavaScript Object Notation format (JSON) in row-major order
http://www.bom.gov.au/fwo/IDN60903/IDN60903.94926.json